sensor_id;sensor_type;location;lat;lon;timestamp;P1;durP1;ratioP1;P2;durP2;ratioP2
60026;SDS011;45891;53.006;6.512;2022-08-04T00:00:43;11.77;;;2.70;;
60026;SDS011;45891;53.006;6.512;2022-08-04T00:03:27;12.02;;;2.55;;
60026;SDS011;45891;53.006;6.512;2022-08-04T00:08:55;14.88;;;2.95;;
60026;SDS011;45891;53.006;6.512;2022-08-04T00:11:25;10.88;;;2.50;;
60026;SDS011;45891;53.006;6.512;2022-08-04T00:13:56;13.45;;;2.70;;
60026;SDS011;45891;53.006;6.512;2022-08-04T00:16:36;10.10;;;2.92;;
60026;SDS011;45891;53.006;6.512;2022-08-04T00:19:20;11.23;;;3.03;;
60026;SDS011;45891;53.006;6.512;2022-08-04T00:21:55;14.98;;;3.70;;
60026;SDS011;45891;53.006;6.512;2022-08-04T00:24:28;14.13;;;3.20;;
60026;SDS011;45891;53.006;6.512;2022-08-04T00:26:55;12.82;;;3.20;;
60026;SDS011;45891;53.006;6.512;2022-08-04T00:29:22;11.02;;;2.90;;
60026;SDS011;45891;53.006;6.512;2022-08-04T00:31:49;11.80;;;3.10;;
60026;SDS011;45891;53.006;6.512;2022-08-04T00:34:15;14.02;;;3.30;;
60026;SDS011;45891;53.006;6.512;2022-08-04T00:36:43;13.48;;;3.17;;
60026;SDS011;45891;53.006;6.512;2022-08-04T00:39:10;13.13;;;3.50;;
60026;SDS011;45891;53.006;6.512;2022-08-04T00:41:43;13.23;;;3.13;;
60026;SDS011;45891;53.006;6.512;2022-08-04T00:57:30;15.75;;;3.05;;
60026;SDS011;45891;53.006;6.512;2022-08-04T01:00:09;8.73;;;2.60;;
60026;SDS011;45891;53.006;6.512;2022-08-04T01:05:56;12.07;;;3.20;;
60026;SDS011;45891;53.006;6.512;2022-08-04T01:16:12;9.30;;;3.00;;
60026;SDS011;45891;53.006;6.512;2022-08-04T01:29:33;17.10;;;3.97;;
60026;SDS011;45891;53.006;6.512;2022-08-04T01:32:12;8.93;;;3.20;;
60026;SDS011;45891;53.006;6.512;2022-08-04T01:34:59;13.15;;;3.75;;
60026;SDS011;45891;53.006;6.512;2022-08-04T01:40:20;12.10;;;3.60;;
60026;SDS011;45891;53.006;6.512;2022-08-04T01:42:48;10.30;;;3.00;;
60026;SDS011;45891;53.006;6.512;2022-08-04T01:45:16;14.97;;;3.70;;
60026;SDS011;45891;53.006;6.512;2022-08-04T01:47:49;14.38;;;3.65;;
60026;SDS011;45891;53.006;6.512;2022-08-04T01:50:18;11.13;;;3.60;;
60026;SDS011;45891;53.006;6.512;2022-08-04T01:52:45;11.52;;;3.40;;
60026;SDS011;45891;53.006;6.512;2022-08-04T01:55:13;12.07;;;3.97;;
60026;SDS011;45891;53.006;6.512;2022-08-04T01:57:41;14.45;;;3.50;;
60026;SDS011;45891;53.006;6.512;2022-08-04T02:00:10;13.95;;;4.03;;
60026;SDS011;45891;53.006;6.512;2022-08-04T02:02:38;15.73;;;3.80;;
60026;SDS011;45891;53.006;6.512;2022-08-04T02:05:04;12.45;;;3.78;;
60026;SDS011;45891;53.006;6.512;2022-08-04T02:07:35;11.30;;;3.70;;
60026;SDS011;45891;53.006;6.512;2022-08-04T02:20:52;12.15;;;4.40;;
60026;SDS011;45891;53.006;6.512;2022-08-04T02:23:28;13.15;;;4.00;;
60026;SDS011;45891;53.006;6.512;2022-08-04T02:26:20;13.40;;;3.80;;
60026;SDS011;45891;53.006;6.512;2022-08-04T02:31:51;13.95;;;4.85;;
60026;SDS011;45891;53.006;6.512;2022-08-04T02:36:52;16.00;;;4.25;;
60026;SDS011;45891;53.006;6.512;2022-08-04T02:39:20;15.00;;;4.60;;
60026;SDS011;45891;53.006;6.512;2022-08-04T02:41:47;13.80;;;4.40;;
60026;SDS011;45891;53.006;6.512;2022-08-04T02:44:21;16.50;;;4.70;;
60026;SDS011;45891;53.006;6.512;2022-08-04T02:46:51;13.90;;;4.78;;
60026;SDS011;45891;53.006;6.512;2022-08-04T02:49:18;11.85;;;4.30;;
60026;SDS011;45891;53.006;6.512;2022-08-04T02:51:46;16.08;;;4.45;;
60026;SDS011;45891;53.006;6.512;2022-08-04T02:54:16;14.40;;;4.80;;
60026;SDS011;45891;53.006;6.512;2022-08-04T02:56:47;10.52;;;4.13;;
60026;SDS011;45891;53.006;6.512;2022-08-04T02:59:16;15.98;;;4.22;;
60026;SDS011;45891;53.006;6.512;2022-08-04T03:01:47;11.35;;;4.20;;
60026;SDS011;45891;53.006;6.512;2022-08-04T03:21:40;12.13;;;4.90;;
60026;SDS011;45891;53.006;6.512;2022-08-04T03:35:35;14.63;;;5.40;;
60026;SDS011;45891;53.006;6.512;2022-08-04T03:38:38;12.98;;;5.05;;
60026;SDS011;45891;53.006;6.512;2022-08-04T03:44:13;12.77;;;5.28;;
60026;SDS011;45891;53.006;6.512;2022-08-04T03:50:01;13.88;;;5.00;;
60026;SDS011;45891;53.006;6.512;2022-08-04T04:10:29;14.20;;;5.30;;
60026;SDS011;45891;53.006;6.512;2022-08-04T04:18:00;14.07;;;4.47;;
60026;SDS011;45891;53.006;6.512;2022-08-04T04:28:28;14.80;;;5.18;;
60026;SDS011;45891;53.006;6.512;2022-08-04T04:42:19;18.75;;;6.60;;
60026;SDS011;45891;53.006;6.512;2022-08-04T04:45:16;14.43;;;6.93;;
60026;SDS011;45891;53.006;6.512;2022-08-04T04:50:22;15.43;;;5.90;;
60026;SDS011;45891;53.006;6.512;2022-08-04T04:53:01;13.68;;;5.82;;
60026;SDS011;45891;53.006;6.512;2022-08-04T04:55:29;14.32;;;5.90;;
60026;SDS011;45891;53.006;6.512;2022-08-04T04:58:04;15.48;;;6.15;;
60026;SDS011;45891;53.006;6.512;2022-08-04T05:06:26;14.52;;;5.35;;
60026;SDS011;45891;53.006;6.512;2022-08-04T05:09:34;15.68;;;6.03;;
60026;SDS011;45891;53.006;6.512;2022-08-04T05:14:51;15.88;;;6.72;;
60026;SDS011;45891;53.006;6.512;2022-08-04T05:22:27;17.58;;;5.35;;
60026;SDS011;45891;53.006;6.512;2022-08-04T05:25:02;14.52;;;5.78;;
60026;SDS011;45891;53.006;6.512;2022-08-04T05:30:31;16.75;;;6.30;;
60026;SDS011;45891;53.006;6.512;2022-08-04T05:33:03;12.63;;;5.70;;
60026;SDS011;45891;53.006;6.512;2022-08-04T05:35:36;12.88;;;5.10;;
60026;SDS011;45891;53.006;6.512;2022-08-04T05:38:09;15.48;;;5.75;;
60026;SDS011;45891;53.006;6.512;2022-08-04T05:40:38;15.05;;;6.30;;
60026;SDS011;45891;53.006;6.512;2022-08-04T05:43:05;16.42;;;5.65;;
60026;SDS011;45891;53.006;6.512;2022-08-04T05:45:32;17.27;;;5.78;;
60026;SDS011;45891;53.006;6.512;2022-08-04T05:48:03;13.68;;;6.10;;
60026;SDS011;45891;53.006;6.512;2022-08-04T05:50:32;13.85;;;6.35;;
60026;SDS011;45891;53.006;6.512;2022-08-04T05:52:58;14.73;;;6.00;;
60026;SDS011;45891;53.006;6.512;2022-08-04T05:55:26;14.75;;;5.93;;
60026;SDS011;45891;53.006;6.512;2022-08-04T05:57:53;16.02;;;5.63;;
60026;SDS011;45891;53.006;6.512;2022-08-04T06:00:21;11.82;;;5.22;;
60026;SDS011;45891;53.006;6.512;2022-08-04T06:02:51;17.75;;;6.75;;
60026;SDS011;45891;53.006;6.512;2022-08-04T06:05:20;13.93;;;5.40;;
60026;SDS011;45891;53.006;6.512;2022-08-04T06:07:47;15.85;;;6.20;;
60026;SDS011;45891;53.006;6.512;2022-08-04T06:10:14;15.02;;;6.45;;
60026;SDS011;45891;53.006;6.512;2022-08-04T06:13:00;17.27;;;6.55;;
60026;SDS011;45891;53.006;6.512;2022-08-04T06:15:31;17.15;;;5.93;;
60026;SDS011;45891;53.006;6.512;2022-08-04T06:18:02;13.40;;;5.65;;
60026;SDS011;45891;53.006;6.512;2022-08-04T06:20:32;16.90;;;5.82;;
60026;SDS011;45891;53.006;6.512;2022-08-04T06:23:07;16.63;;;5.72;;
60026;SDS011;45891;53.006;6.512;2022-08-04T06:25:38;13.32;;;5.78;;
60026;SDS011;45891;53.006;6.512;2022-08-04T06:28:13;16.42;;;5.47;;
60026;SDS011;45891;53.006;6.512;2022-08-04T06:30:40;16.08;;;5.78;;
60026;SDS011;45891;53.006;6.512;2022-08-04T06:33:13;12.32;;;4.97;;
60026;SDS011;45891;53.006;6.512;2022-08-04T06:35:58;19.52;;;5.05;;
60026;SDS011;45891;53.006;6.512;2022-08-04T06:38:27;15.30;;;4.85;;
60026;SDS011;45891;53.006;6.512;2022-08-04T06:40:55;13.95;;;4.72;;
60026;SDS011;45891;53.006;6.512;2022-08-04T06:43:28;13.95;;;4.60;;
60026;SDS011;45891;53.006;6.512;2022-08-04T06:45:56;11.27;;;4.50;;
60026;SDS011;45891;53.006;6.512;2022-08-04T06:48:26;17.33;;;4.35;;
60026;SDS011;45891;53.006;6.512;2022-08-04T06:50:53;13.53;;;4.20;;
60026;SDS011;45891;53.006;6.512;2022-08-04T06:53:21;10.80;;;3.83;;
60026;SDS011;45891;53.006;6.512;2022-08-04T06:55:48;13.82;;;3.78;;
60026;SDS011;45891;53.006;6.512;2022-08-04T06:58:16;14.65;;;3.63;;
60026;SDS011;45891;53.006;6.512;2022-08-04T07:00:45;16.60;;;3.70;;
60026;SDS011;45891;53.006;6.512;2022-08-04T07:03:12;13.95;;;3.33;;
60026;SDS011;45891;53.006;6.512;2022-08-04T07:05:40;16.13;;;3.45;;
60026;SDS011;45891;53.006;6.512;2022-08-04T07:08:07;13.15;;;3.28;;
60026;SDS011;45891;53.006;6.512;2022-08-04T07:10:35;18.17;;;3.45;;
60026;SDS011;45891;53.006;6.512;2022-08-04T07:13:02;14.15;;;3.63;;
60026;SDS011;45891;53.006;6.512;2022-08-04T07:15:28;13.55;;;3.40;;
60026;SDS011;45891;53.006;6.512;2022-08-04T07:17:55;16.05;;;3.85;;
60026;SDS011;45891;53.006;6.512;2022-08-04T07:20:28;15.50;;;3.40;;
60026;SDS011;45891;53.006;6.512;2022-08-04T07:22:54;12.85;;;3.00;;
60026;SDS011;45891;53.006;6.512;2022-08-04T07:25:21;14.55;;;3.20;;
60026;SDS011;45891;53.006;6.512;2022-08-04T07:27:48;15.27;;;3.40;;
60026;SDS011;45891;53.006;6.512;2022-08-04T07:30:14;12.88;;;3.00;;
60026;SDS011;45891;53.006;6.512;2022-08-04T07:32:42;14.02;;;3.05;;
60026;SDS011;45891;53.006;6.512;2022-08-04T07:35:11;15.35;;;2.90;;
60026;SDS011;45891;53.006;6.512;2022-08-04T07:37:38;16.98;;;2.90;;
60026;SDS011;45891;53.006;6.512;2022-08-04T07:40:04;10.90;;;2.90;;
60026;SDS011;45891;53.006;6.512;2022-08-04T07:42:31;12.50;;;2.60;;
60026;SDS011;45891;53.006;6.512;2022-08-04T07:44:58;11.70;;;2.60;;
60026;SDS011;45891;53.006;6.512;2022-08-04T07:47:24;16.90;;;2.60;;
60026;SDS011;45891;53.006;6.512;2022-08-04T07:49:52;13.85;;;2.50;;
60026;SDS011;45891;53.006;6.512;2022-08-04T07:52:18;13.50;;;2.83;;
60026;SDS011;45891;53.006;6.512;2022-08-04T07:54:46;12.13;;;2.40;;
60026;SDS011;45891;53.006;6.512;2022-08-04T07:57:14;13.93;;;2.90;;
60026;SDS011;45891;53.006;6.512;2022-08-04T07:59:43;14.18;;;3.08;;
60026;SDS011;45891;53.006;6.512;2022-08-04T08:02:09;11.43;;;2.63;;
60026;SDS011;45891;53.006;6.512;2022-08-04T08:04:38;14.15;;;2.65;;
60026;SDS011;45891;53.006;6.512;2022-08-04T08:07:05;9.68;;;2.60;;
60026;SDS011;45891;53.006;6.512;2022-08-04T08:09:32;13.57;;;2.83;;
60026;SDS011;45891;53.006;6.512;2022-08-04T08:12:00;14.40;;;2.70;;
60026;SDS011;45891;53.006;6.512;2022-08-04T08:14:26;13.32;;;2.85;;
60026;SDS011;45891;53.006;6.512;2022-08-04T08:16:53;13.27;;;3.10;;
60026;SDS011;45891;53.006;6.512;2022-08-04T08:19:19;12.25;;;3.28;;
60026;SDS011;45891;53.006;6.512;2022-08-04T08:21:46;11.27;;;2.83;;
60026;SDS011;45891;53.006;6.512;2022-08-04T08:26:42;12.77;;;2.80;;
60026;SDS011;45891;53.006;6.512;2022-08-04T08:29:08;10.55;;;2.50;;
60026;SDS011;45891;53.006;6.512;2022-08-04T08:31:34;10.98;;;2.95;;
60026;SDS011;45891;53.006;6.512;2022-08-04T08:34:01;14.25;;;2.90;;
60026;SDS011;45891;53.006;6.512;2022-08-04T08:53:30;14.17;;;3.40;;
60026;SDS011;45891;53.006;6.512;2022-08-04T09:12:42;12.52;;;3.83;;
60026;SDS011;45891;53.006;6.512;2022-08-04T09:15:12;14.10;;;3.70;;
60026;SDS011;45891;53.006;6.512;2022-08-04T09:17:47;14.45;;;4.00;;
60026;SDS011;45891;53.006;6.512;2022-08-04T09:20:43;10.07;;;3.72;;
60026;SDS011;45891;53.006;6.512;2022-08-04T09:28:28;19.17;;;3.67;;
60026;SDS011;45891;53.006;6.512;2022-08-04T09:31:18;11.65;;;3.30;;
60026;SDS011;45891;53.006;6.512;2022-08-04T09:34:03;12.98;;;3.47;;
60026;SDS011;45891;53.006;6.512;2022-08-04T09:36:41;13.88;;;3.53;;
60026;SDS011;45891;53.006;6.512;2022-08-04T09:39:39;14.93;;;4.00;;
60026;SDS011;45891;53.006;6.512;2022-08-04T09:45:30;14.70;;;4.07;;
60026;SDS011;45891;53.006;6.512;2022-08-04T09:48:23;14.48;;;4.20;;
60026;SDS011;45891;53.006;6.512;2022-08-04T09:50:59;12.93;;;3.90;;
60026;SDS011;45891;53.006;6.512;2022-08-04T10:01:53;10.68;;;2.75;;
60026;SDS011;45891;53.006;6.512;2022-08-04T10:04:23;8.50;;;2.33;;
60026;SDS011;45891;53.006;6.512;2022-08-04T10:09:49;10.73;;;2.63;;
60026;SDS011;45891;53.006;6.512;2022-08-04T10:15:59;11.07;;;2.90;;
60026;SDS011;45891;53.006;6.512;2022-08-04T10:21:03;10.60;;;2.00;;
60026;SDS011;45891;53.006;6.512;2022-08-04T10:29:12;12.23;;;2.10;;
60026;SDS011;45891;53.006;6.512;2022-08-04T10:31:47;12.95;;;1.98;;
60026;SDS011;45891;53.006;6.512;2022-08-04T10:34:24;12.33;;;2.10;;
60026;SDS011;45891;53.006;6.512;2022-08-04T10:37:02;12.98;;;2.20;;
60026;SDS011;45891;53.006;6.512;2022-08-04T10:42:52;11.05;;;1.80;;
60026;SDS011;45891;53.006;6.512;2022-08-04T10:45:26;17.23;;;1.77;;
60026;SDS011;45891;53.006;6.512;2022-08-04T10:48:10;10.65;;;1.92;;
60026;SDS011;45891;53.006;6.512;2022-08-04T10:53:43;11.50;;;1.88;;
60026;SDS011;45891;53.006;6.512;2022-08-04T10:56:14;11.45;;;2.00;;
60026;SDS011;45891;53.006;6.512;2022-08-04T10:59:09;12.18;;;2.03;;
60026;SDS011;45891;53.006;6.512;2022-08-04T11:01:45;10.10;;;1.92;;
60026;SDS011;45891;53.006;6.512;2022-08-04T11:04:36;13.88;;;2.00;;
60026;SDS011;45891;53.006;6.512;2022-08-04T11:07:12;14.05;;;2.20;;
60026;SDS011;45891;53.006;6.512;2022-08-04T11:09:41;11.35;;;2.17;;
60026;SDS011;45891;53.006;6.512;2022-08-04T11:12:10;13.93;;;2.28;;
60026;SDS011;45891;53.006;6.512;2022-08-04T11:14:50;10.02;;;2.20;;
60026;SDS011;45891;53.006;6.512;2022-08-04T11:17:26;10.80;;;1.90;;
60026;SDS011;45891;53.006;6.512;2022-08-04T11:22:32;15.50;;;2.50;;
60026;SDS011;45891;53.006;6.512;2022-08-04T11:27:43;9.02;;;1.50;;
60026;SDS011;45891;53.006;6.512;2022-08-04T11:30:35;8.05;;;1.40;;
60026;SDS011;45891;53.006;6.512;2022-08-04T11:33:15;7.03;;;1.30;;
60026;SDS011;45891;53.006;6.512;2022-08-04T11:38:42;9.20;;;1.42;;
60026;SDS011;45891;53.006;6.512;2022-08-04T11:41:18;8.32;;;1.50;;
60026;SDS011;45891;53.006;6.512;2022-08-04T11:43:55;7.75;;;1.40;;
60026;SDS011;45891;53.006;6.512;2022-08-04T11:46:25;7.90;;;1.40;;
60026;SDS011;45891;53.006;6.512;2022-08-04T11:51:28;5.88;;;1.13;;
60026;SDS011;45891;53.006;6.512;2022-08-04T11:53:56;11.13;;;1.60;;
60026;SDS011;45891;53.006;6.512;2022-08-04T11:56:23;9.93;;;1.40;;
60026;SDS011;45891;53.006;6.512;2022-08-04T11:58:50;6.40;;;1.23;;
60026;SDS011;45891;53.006;6.512;2022-08-04T12:01:22;7.55;;;1.58;;
60026;SDS011;45891;53.006;6.512;2022-08-04T12:14:54;8.90;;;1.30;;
60026;SDS011;45891;53.006;6.512;2022-08-04T12:17:30;8.15;;;1.60;;
60026;SDS011;45891;53.006;6.512;2022-08-04T12:20:05;5.57;;;1.40;;
60026;SDS011;45891;53.006;6.512;2022-08-04T12:22:40;6.88;;;1.40;;
60026;SDS011;45891;53.006;6.512;2022-08-04T12:25:13;8.88;;;1.40;;
60026;SDS011;45891;53.006;6.512;2022-08-04T12:27:58;11.43;;;1.92;;
60026;SDS011;45891;53.006;6.512;2022-08-04T12:30:32;9.75;;;1.60;;
60026;SDS011;45891;53.006;6.512;2022-08-04T12:33:19;9.85;;;1.75;;
60026;SDS011;45891;53.006;6.512;2022-08-04T12:36:07;6.10;;;1.30;;
60026;SDS011;45891;53.006;6.512;2022-08-04T12:42:02;7.53;;;1.30;;
60026;SDS011;45891;53.006;6.512;2022-08-04T12:44:47;5.72;;;1.33;;
60026;SDS011;45891;53.006;6.512;2022-08-04T12:47:22;6.68;;;1.20;;
60026;SDS011;45891;53.006;6.512;2022-08-04T12:49:50;5.47;;;1.10;;
60026;SDS011;45891;53.006;6.512;2022-08-04T12:52:17;5.03;;;1.00;;
60026;SDS011;45891;53.006;6.512;2022-08-04T12:54:50;6.25;;;1.23;;
60026;SDS011;45891;53.006;6.512;2022-08-04T12:57:20;5.90;;;1.20;;
60026;SDS011;45891;53.006;6.512;2022-08-04T12:59:48;7.57;;;1.15;;
60026;SDS011;45891;53.006;6.512;2022-08-04T13:02:16;7.15;;;1.30;;
60026;SDS011;45891;53.006;6.512;2022-08-04T13:04:48;6.25;;;1.23;;
60026;SDS011;45891;53.006;6.512;2022-08-04T13:07:18;7.28;;;1.33;;
60026;SDS011;45891;53.006;6.512;2022-08-04T13:09:45;9.32;;;1.42;;
60026;SDS011;45891;53.006;6.512;2022-08-04T13:14:40;6.20;;;1.30;;
60026;SDS011;45891;53.006;6.512;2022-08-04T13:17:10;6.50;;;1.38;;
60026;SDS011;45891;53.006;6.512;2022-08-04T13:19:37;6.38;;;1.20;;
60026;SDS011;45891;53.006;6.512;2022-08-04T13:22:04;10.73;;;1.60;;
60026;SDS011;45891;53.006;6.512;2022-08-04T13:24:31;5.75;;;1.42;;
60026;SDS011;45891;53.006;6.512;2022-08-04T13:27:01;10.07;;;1.40;;
60026;SDS011;45891;53.006;6.512;2022-08-04T13:29:38;7.32;;;1.60;;
60026;SDS011;45891;53.006;6.512;2022-08-04T13:32:07;7.10;;;1.20;;
60026;SDS011;45891;53.006;6.512;2022-08-04T13:34:35;5.10;;;1.08;;
60026;SDS011;45891;53.006;6.512;2022-08-04T13:37:06;6.10;;;1.17;;
60026;SDS011;45891;53.006;6.512;2022-08-04T13:39:34;5.97;;;1.23;;
60026;SDS011;45891;53.006;6.512;2022-08-04T13:42:02;6.15;;;1.05;;
60026;SDS011;45891;53.006;6.512;2022-08-04T13:44:34;5.65;;;1.00;;
60026;SDS011;45891;53.006;6.512;2022-08-04T13:47:07;7.80;;;1.00;;
60026;SDS011;45891;53.006;6.512;2022-08-04T13:49:37;7.47;;;1.08;;
60026;SDS011;45891;53.006;6.512;2022-08-04T13:52:04;5.25;;;0.90;;
60026;SDS011;45891;53.006;6.512;2022-08-04T13:54:39;6.70;;;1.20;;
60026;SDS011;45891;53.006;6.512;2022-08-04T13:57:26;5.55;;;1.20;;
60026;SDS011;45891;53.006;6.512;2022-08-04T14:00:05;6.03;;;1.20;;
60026;SDS011;45891;53.006;6.512;2022-08-04T14:02:58;4.97;;;1.10;;
60026;SDS011;45891;53.006;6.512;2022-08-04T14:05:26;6.55;;;1.13;;
60026;SDS011;45891;53.006;6.512;2022-08-04T14:07:55;10.38;;;1.42;;
60026;SDS011;45891;53.006;6.512;2022-08-04T14:10:28;6.03;;;1.10;;
60026;SDS011;45891;53.006;6.512;2022-08-04T14:12:55;14.95;;;1.73;;
60026;SDS011;45891;53.006;6.512;2022-08-04T14:15:32;7.03;;;1.30;;
60026;SDS011;45891;53.006;6.512;2022-08-04T14:23:50;7.88;;;1.25;;
60026;SDS011;45891;53.006;6.512;2022-08-04T14:26:36;8.40;;;1.10;;
60026;SDS011;45891;53.006;6.512;2022-08-04T14:29:20;5.82;;;1.17;;
60026;SDS011;45891;53.006;6.512;2022-08-04T14:31:47;6.50;;;1.30;;
60026;SDS011;45891;53.006;6.512;2022-08-04T14:34:27;6.35;;;1.10;;
60026;SDS011;45891;53.006;6.512;2022-08-04T14:36:54;9.73;;;1.20;;
60026;SDS011;45891;53.006;6.512;2022-08-04T14:39:37;6.40;;;1.20;;
60026;SDS011;45891;53.006;6.512;2022-08-04T14:42:08;7.22;;;1.20;;
60026;SDS011;45891;53.006;6.512;2022-08-04T14:44:54;5.35;;;1.10;;
60026;SDS011;45891;53.006;6.512;2022-08-04T14:47:55;6.43;;;1.02;;
60026;SDS011;45891;53.006;6.512;2022-08-04T14:50:13;6.30;;;1.00;;
60026;SDS011;45891;53.006;6.512;2022-08-04T14:52:40;6.75;;;0.95;;
60026;SDS011;45891;53.006;6.512;2022-08-04T14:57:49;9.50;;;1.40;;
60026;SDS011;45891;53.006;6.512;2022-08-04T15:00:25;6.40;;;1.30;;
60026;SDS011;45891;53.006;6.512;2022-08-04T15:03:01;8.00;;;1.38;;
60026;SDS011;45891;53.006;6.512;2022-08-04T15:05:33;8.13;;;1.45;;
60026;SDS011;45891;53.006;6.512;2022-08-04T15:08:00;6.18;;;1.20;;
60026;SDS011;45891;53.006;6.512;2022-08-04T15:10:27;6.80;;;1.30;;
60026;SDS011;45891;53.006;6.512;2022-08-04T15:12:54;6.95;;;1.40;;
60026;SDS011;45891;53.006;6.512;2022-08-04T15:15:20;6.00;;;1.20;;
60026;SDS011;45891;53.006;6.512;2022-08-04T15:17:47;6.30;;;1.25;;
60026;SDS011;45891;53.006;6.512;2022-08-04T15:20:14;7.10;;;1.17;;
60026;SDS011;45891;53.006;6.512;2022-08-04T15:22:41;7.68;;;1.23;;
60026;SDS011;45891;53.006;6.512;2022-08-04T15:25:08;7.15;;;1.48;;
60026;SDS011;45891;53.006;6.512;2022-08-04T15:27:35;8.07;;;1.30;;
60026;SDS011;45891;53.006;6.512;2022-08-04T15:30:05;8.13;;;1.50;;
60026;SDS011;45891;53.006;6.512;2022-08-04T15:32:36;6.93;;;1.70;;
60026;SDS011;45891;53.006;6.512;2022-08-04T15:35:09;7.78;;;1.63;;
60026;SDS011;45891;53.006;6.512;2022-08-04T15:40:46;10.10;;;2.00;;
60026;SDS011;45891;53.006;6.512;2022-08-04T15:45:54;8.00;;;1.60;;
60026;SDS011;45891;53.006;6.512;2022-08-04T15:48:26;9.23;;;1.88;;
60026;SDS011;45891;53.006;6.512;2022-08-04T15:58:51;8.88;;;2.10;;
60026;SDS011;45891;53.006;6.512;2022-08-04T16:01:19;10.15;;;1.98;;
60026;SDS011;45891;53.006;6.512;2022-08-04T16:03:49;10.90;;;2.30;;
60026;SDS011;45891;53.006;6.512;2022-08-04T16:19:22;8.98;;;1.95;;
60026;SDS011;45891;53.006;6.512;2022-08-04T16:21:52;8.98;;;1.83;;
60026;SDS011;45891;53.006;6.512;2022-08-04T16:24:29;9.82;;;1.65;;
60026;SDS011;45891;53.006;6.512;2022-08-04T16:27:00;7.68;;;1.83;;
60026;SDS011;45891;53.006;6.512;2022-08-04T16:29:32;8.10;;;1.67;;
60026;SDS011;45891;53.006;6.512;2022-08-04T16:34:53;6.15;;;1.40;;
60026;SDS011;45891;53.006;6.512;2022-08-04T16:37:27;9.32;;;1.40;;
60026;SDS011;45891;53.006;6.512;2022-08-04T16:43:16;7.30;;;1.40;;
60026;SDS011;45891;53.006;6.512;2022-08-04T16:48:20;6.68;;;1.30;;
60026;SDS011;45891;53.006;6.512;2022-08-04T16:51:05;5.30;;;1.17;;
60026;SDS011;45891;53.006;6.512;2022-08-04T16:53:37;5.37;;;1.10;;
60026;SDS011;45891;53.006;6.512;2022-08-04T16:56:08;6.55;;;1.27;;
60026;SDS011;45891;53.006;6.512;2022-08-04T16:58:35;5.25;;;1.10;;
60026;SDS011;45891;53.006;6.512;2022-08-04T17:01:08;6.70;;;1.10;;
60026;SDS011;45891;53.006;6.512;2022-08-04T17:03:36;5.57;;;1.00;;
60026;SDS011;45891;53.006;6.512;2022-08-04T17:06:04;8.20;;;1.30;;
60026;SDS011;45891;53.006;6.512;2022-08-04T17:08:35;6.15;;;1.30;;
60026;SDS011;45891;53.006;6.512;2022-08-04T17:11:03;6.10;;;1.40;;
60026;SDS011;45891;53.006;6.512;2022-08-04T17:16:02;6.60;;;1.20;;
60026;SDS011;45891;53.006;6.512;2022-08-04T17:18:32;7.47;;;1.50;;
60026;SDS011;45891;53.006;6.512;2022-08-04T17:21:02;7.97;;;1.40;;
60026;SDS011;45891;53.006;6.512;2022-08-04T17:26:15;7.10;;;1.50;;
60026;SDS011;45891;53.006;6.512;2022-08-04T17:28:46;6.55;;;1.45;;
60026;SDS011;45891;53.006;6.512;2022-08-04T17:31:14;16.98;;;1.77;;
60026;SDS011;45891;53.006;6.512;2022-08-04T17:33:47;8.02;;;1.52;;
60026;SDS011;45891;53.006;6.512;2022-08-04T17:36:15;10.25;;;1.40;;
60026;SDS011;45891;53.006;6.512;2022-08-04T17:38:46;6.90;;;1.38;;
60026;SDS011;45891;53.006;6.512;2022-08-04T17:41:19;8.23;;;1.30;;
60026;SDS011;45891;53.006;6.512;2022-08-04T17:43:47;9.18;;;1.40;;
60026;SDS011;45891;53.006;6.512;2022-08-04T17:46:21;8.48;;;1.70;;
60026;SDS011;45891;53.006;6.512;2022-08-04T17:52:13;8.45;;;1.50;;
60026;SDS011;45891;53.006;6.512;2022-08-04T17:54:18;8.90;;;1.70;;
60026;SDS011;45891;53.006;6.512;2022-08-04T17:56:55;9.80;;;1.60;;
60026;SDS011;45891;53.006;6.512;2022-08-04T17:59:27;9.90;;;1.70;;
60026;SDS011;45891;53.006;6.512;2022-08-04T18:01:58;10.45;;;1.48;;
60026;SDS011;45891;53.006;6.512;2022-08-04T18:07:04;10.25;;;1.67;;
60026;SDS011;45891;53.006;6.512;2022-08-04T18:09:32;7.38;;;1.60;;
60026;SDS011;45891;53.006;6.512;2022-08-04T18:12:04;8.68;;;1.50;;
60026;SDS011;45891;53.006;6.512;2022-08-04T18:14:41;7.20;;;1.50;;
60026;SDS011;45891;53.006;6.512;2022-08-04T18:17:09;7.93;;;1.70;;
60026;SDS011;45891;53.006;6.512;2022-08-04T18:19:36;7.55;;;1.60;;
60026;SDS011;45891;53.006;6.512;2022-08-04T18:22:04;6.78;;;1.65;;
60026;SDS011;45891;53.006;6.512;2022-08-04T18:24:32;9.57;;;1.85;;
60026;SDS011;45891;53.006;6.512;2022-08-04T18:26:59;10.80;;;1.73;;
60026;SDS011;45891;53.006;6.512;2022-08-04T18:29:25;8.88;;;1.40;;
60026;SDS011;45891;53.006;6.512;2022-08-04T18:31:52;8.73;;;1.88;;
60026;SDS011;45891;53.006;6.512;2022-08-04T18:34:18;7.57;;;1.48;;
60026;SDS011;45891;53.006;6.512;2022-08-04T18:36:44;11.02;;;1.80;;
60026;SDS011;45891;53.006;6.512;2022-08-04T18:39:10;8.43;;;2.00;;
60026;SDS011;45891;53.006;6.512;2022-08-04T18:41:36;6.65;;;1.60;;
60026;SDS011;45891;53.006;6.512;2022-08-04T18:44:03;10.07;;;1.70;;
60026;SDS011;45891;53.006;6.512;2022-08-04T18:46:29;8.93;;;1.80;;
60026;SDS011;45891;53.006;6.512;2022-08-04T18:48:55;12.00;;;2.03;;
60026;SDS011;45891;53.006;6.512;2022-08-04T18:51:22;10.60;;;1.80;;
60026;SDS011;45891;53.006;6.512;2022-08-04T18:53:48;8.90;;;1.60;;
60026;SDS011;45891;53.006;6.512;2022-08-04T18:56:14;9.93;;;2.10;;
60026;SDS011;45891;53.006;6.512;2022-08-04T18:58:41;8.52;;;1.80;;
60026;SDS011;45891;53.006;6.512;2022-08-04T19:01:07;10.13;;;2.03;;
60026;SDS011;45891;53.006;6.512;2022-08-04T19:03:34;12.13;;;2.10;;
60026;SDS011;45891;53.006;6.512;2022-08-04T19:06:00;9.10;;;2.00;;
60026;SDS011;45891;53.006;6.512;2022-08-04T19:08:29;13.10;;;2.10;;
60026;SDS011;45891;53.006;6.512;2022-08-04T19:10:56;11.98;;;2.22;;
60026;SDS011;45891;53.006;6.512;2022-08-04T19:13:24;9.70;;;2.10;;
60026;SDS011;45891;53.006;6.512;2022-08-04T19:15:51;10.13;;;2.07;;
60026;SDS011;45891;53.006;6.512;2022-08-04T19:18:18;10.52;;;2.03;;
60026;SDS011;45891;53.006;6.512;2022-08-04T19:20:44;11.45;;;2.22;;
60026;SDS011;45891;53.006;6.512;2022-08-04T19:23:11;11.23;;;2.55;;
60026;SDS011;45891;53.006;6.512;2022-08-04T19:25:37;10.80;;;2.13;;
60026;SDS011;45891;53.006;6.512;2022-08-04T19:28:04;11.70;;;2.30;;
60026;SDS011;45891;53.006;6.512;2022-08-04T19:30:30;14.13;;;2.28;;
60026;SDS011;45891;53.006;6.512;2022-08-04T19:32:56;11.75;;;2.38;;
60026;SDS011;45891;53.006;6.512;2022-08-04T19:35:23;15.18;;;2.03;;
60026;SDS011;45891;53.006;6.512;2022-08-04T19:37:49;10.35;;;2.45;;
60026;SDS011;45891;53.006;6.512;2022-08-04T19:40:15;10.38;;;2.42;;
60026;SDS011;45891;53.006;6.512;2022-08-04T19:42:41;9.00;;;2.05;;
60026;SDS011;45891;53.006;6.512;2022-08-04T19:45:08;15.55;;;2.00;;
60026;SDS011;45891;53.006;6.512;2022-08-04T19:47:35;10.32;;;2.30;;
60026;SDS011;45891;53.006;6.512;2022-08-04T19:50:02;7.78;;;2.03;;
60026;SDS011;45891;53.006;6.512;2022-08-04T19:52:30;9.50;;;2.30;;
60026;SDS011;45891;53.006;6.512;2022-08-04T19:54:56;10.70;;;2.38;;
60026;SDS011;45891;53.006;6.512;2022-08-04T19:57:22;9.27;;;2.35;;
60026;SDS011;45891;53.006;6.512;2022-08-04T19:59:49;10.43;;;2.50;;
60026;SDS011;45891;53.006;6.512;2022-08-04T20:02:15;11.15;;;2.30;;
60026;SDS011;45891;53.006;6.512;2022-08-04T20:04:41;10.70;;;2.53;;
60026;SDS011;45891;53.006;6.512;2022-08-04T20:07:07;10.05;;;2.60;;
60026;SDS011;45891;53.006;6.512;2022-08-04T20:09:33;10.05;;;2.63;;
60026;SDS011;45891;53.006;6.512;2022-08-04T20:11:59;9.60;;;2.03;;
60026;SDS011;45891;53.006;6.512;2022-08-04T20:14:25;11.63;;;2.15;;